Stations météo

Publicité
Lus-La-Croix-Haute, France (7587): Température de l'air & dewpoint: 18.05.2017 11:00:00 - 24.05.2017 11:00:00 (CEST)Lus-La-Croix-Haute, France (7587): Vitesse du vent & gusts: 18.05.2017 11:00:00 - 24.05.2017 11:00:00 (CEST)Lus-La-Croix-Haute, France (7587): Direction du vent: 18.05.2017 11:00:00 - 24.05.2017 11:00:00 (CEST)Lus-La-Croix-Haute, France (7587): Quantités de précipitations: 18.05.2017 11:00:00 - 24.05.2017 11:00:00 (CEST)
Date & Time tt [°C] td [°C] ff [km/h] ff [knt] fx [km/h] fx [knt] dd rr [mm]
24.05.2017 11:00:00 18,9 9,7 13 7 39 21 N 0,0
24.05.2017 10:00:00 17,4 11,2 15 8 35 19 NNW 0,0
24.05.2017 09:00:00 16,4 10,5 8 4 16 9 NNW 0,0
24.05.2017 08:00:00 12,7 9,7 4 2 9 5 E -
24.05.2017 07:00:00 12,4 9,4 4 2 18 10 ENE 0,0
24.05.2017 06:00:00 11,7 9,6 8 4 22 12 N 0,0
24.05.2017 05:00:00 12,7 9,5 4 2 34 18 N 0,0
24.05.2017 04:00:00 12,3 9,1 11 6 22 12 NNW 0,0
24.05.2017 03:00:00 12,4 8,7 4 2 16 9 NNE 0,0
24.05.2017 02:00:00 13,0 9,3 11 6 24 13 NW -
24.05.2017 01:00:00 14,4 9,2 8 4 18 10 NNE 0,0
24.05.2017 00:00:00 14,4 9,2 8 4 16 9 N 0,0
23.05.2017 23:00:00 15,6 9,7 8 4 24 13 NNE 0,0
23.05.2017 22:00:00 16,7 9,9 8 4 39 21 N 0,0
23.05.2017 21:00:00 17,7 10,1 13 7 39 21 NNW 0,0
23.05.2017 20:00:00 19,6 10,6 13 7 35 19 NNW -
23.05.2017 19:00:00 21,1 10,6 16 9 50 27 NNW 0,0
23.05.2017 18:00:00 22,0 8,8 22 12 48 26 NNW 0,0
23.05.2017 17:00:00 22,2 8,7 22 12 57 31 NNW 0,0
23.05.2017 16:00:00 21,8 8,3 22 12 48 26 NNW 0,0
23.05.2017 15:00:00 22,1 9,3 22 12 52 28 NNW 0,0
23.05.2017 14:00:00 22,0 8,1 21 11 46 25 NNW -
23.05.2017 13:00:00 21,0 7,2 18 10 42 23 N 0,0
23.05.2017 12:00:00 20,5 6,4 13 7 39 21 NW 0,0
23.05.2017 11:00:00 19,5 5,9 11 6 50 27 NNW 0,0
23.05.2017 10:00:00 17,9 7,6 8 4 22 12 NNW 0,0
23.05.2017 09:00:00 16,1 7,1 4 2 11 6 S 0,0
23.05.2017 08:00:00 13,4 6,9 8 4 18 10 N -
23.05.2017 07:00:00 12,0 5,4 8 4 15 8 N 0,0
23.05.2017 06:00:00 10,8 5,5 5 3 16 9 N 0,0
23.05.2017 05:00:00 9,5 5,7 5 3 9 5 E 0,0
23.05.2017 04:00:00 9,1 5,8 2 1 8 4 SSE 0,0
23.05.2017 03:00:00 8,7 6,1 2 1 8 4 SE 0,0
23.05.2017 02:00:00 8,8 6,9 2 1 4 2 ESE -
23.05.2017 01:00:00 9,6 7,2 2 1 5 3 WSW 0,0
23.05.2017 00:00:00 10,5 7,2 4 2 9 5 NNE 0,0
22.05.2017 23:00:00 11,7 7,6 2 1 11 6 N 0,0
22.05.2017 22:00:00 13,6 7,4 5 3 16 9 N 0,0
22.05.2017 21:00:00 16,0 7,7 9 5 28 15 N 0,0
22.05.2017 20:00:00 18,1 7,2 15 8 28 15 NNW -
22.05.2017 19:00:00 20,4 7,7 13 7 24 13 NW 0,0
22.05.2017 18:00:00 20,9 9,2 11 6 21 11 WNW 0,0
22.05.2017 17:00:00 21,8 7,2 8 4 21 11 W 0,0
22.05.2017 16:00:00 21,8 7,6 11 6 28 15 S 0,0
22.05.2017 15:00:00 21,1 6,6 8 4 29 16 SSW 0,0
22.05.2017 14:00:00 20,8 6,3 15 8 39 21 S -
22.05.2017 13:00:00 19,5 5,5 16 9 41 22 SW 0,0
22.05.2017 12:00:00 18,0 6,2 18 10 39 21 SSW 0,0
22.05.2017 11:00:00 17,7 5,3 22 12 41 22 SSW 0,0
22.05.2017 10:00:00 16,1 5,4 18 10 31 17 SSW 0,0
22.05.2017 09:00:00 9,6 9,6 2 1 8 4 S 0,0
22.05.2017 08:00:00 6,6 6,6 2 1 5 3 NNW -
22.05.2017 07:00:00 4,4 4,3 2 1 8 4 ENE 0,0
22.05.2017 06:00:00 4,0 3,7 2 1 5 3 N 0,0
22.05.2017 05:00:00 4,5 4,5 2 1 8 4 NNW 0,0
22.05.2017 04:00:00 4,8 4,4 2 1 5 3 SE 0,0
22.05.2017 03:00:00 5,7 5,3 2 1 5 3 N 0,0
22.05.2017 02:00:00 6,0 5,4 2 1 5 3 ESE -
22.05.2017 01:00:00 7,0 6,1 4 2 8 4 ENE 0,0
22.05.2017 00:00:00 8,2 6,5 2 1 5 3 SSE 0,0
21.05.2017 23:00:00 9,2 6,3 4 2 8 4 ESE 0,0
21.05.2017 22:00:00 11,4 6,5 4 2 13 7 N 0,0
21.05.2017 21:00:00 13,8 7,3 9 5 24 13 NNW 0,0
21.05.2017 20:00:00 17,2 7,0 13 7 28 15 NNW -
21.05.2017 19:00:00 19,2 8,5 13 7 28 15 NNW 0,0
21.05.2017 18:00:00 20,3 8,0 16 9 31 17 NW 0,0
21.05.2017 17:00:00 21,3 8,5 16 9 28 15 WNW 0,0
21.05.2017 16:00:00 21,4 7,2 13 7 28 15 WNW 0,0
21.05.2017 15:00:00 20,8 8,4 13 7 28 15 WNW 0,0
21.05.2017 14:00:00 19,6 8,6 13 7 24 13 WNW -
21.05.2017 13:00:00 18,4 5,9 13 7 22 12 WNW 0,0
21.05.2017 12:00:00 16,6 6,1 8 4 24 13 WNW 0,0
21.05.2017 11:00:00 13,8 5,7 15 8 34 18 WNW 0,0
21.05.2017 10:00:00 12,3 4,0 5 3 18 10 NW 0,0
21.05.2017 09:00:00 9,7 3,4 5 3 11 6 S 0,0
21.05.2017 08:00:00 5,8 3,3 2 1 8 4 NNE -
21.05.2017 07:00:00 4,1 2,4 4 2 9 5 NE 0,0
21.05.2017 06:00:00 4,1 2,3 2 1 13 7 ENE 0,0
21.05.2017 05:00:00 4,4 2,1 5 3 9 5 NNE 0,0
21.05.2017 04:00:00 5,7 2,2 4 2 15 8 NNW 0,0
21.05.2017 03:00:00 5,8 2,4 8 4 22 12 N 0,0
21.05.2017 02:00:00 6,3 2,6 9 5 24 13 NNW -
21.05.2017 01:00:00 7,9 2,1 8 4 26 14 NE 0,0
21.05.2017 00:00:00 7,9 2,1 4 2 26 14 NNW 0,0
20.05.2017 23:00:00 8,3 2,1 11 6 39 21 NNW 0,0
20.05.2017 22:00:00 9,3 2,4 9 5 41 22 N 0,0
20.05.2017 21:00:00 9,9 2,3 15 8 59 32 NNW 0,0
20.05.2017 20:00:00 11,1 2,9 18 10 46 25 NNW -
20.05.2017 19:00:00 11,6 2,9 13 7 48 26 NNW 0,0
20.05.2017 18:00:00 13,5 3,6 18 10 55 30 NNW 0,0
20.05.2017 17:00:00 13,3 2,5 13 7 44 24 N 0,0
20.05.2017 16:00:00 13,1 3,5 24 13 57 31 NNW 0,0
20.05.2017 15:00:00 13,0 4,2 18 10 42 23 N 0,0
20.05.2017 14:00:00 11,9 3,1 9 5 39 21 N -
20.05.2017 13:00:00 11,2 3,9 16 9 46 25 NNW 0,0
20.05.2017 12:00:00 9,1 3,1 16 9 39 21 NNW 0,0
20.05.2017 11:00:00 9,1 3,3 8 4 44 24 NE 0,0
20.05.2017 10:00:00 7,8 3,3 15 8 37 20 NW 0,0
20.05.2017 09:00:00 6,9 3,5 13 7 29 16 NNW 0,0
20.05.2017 08:00:00 6,1 3,4 13 7 35 19 NW -
20.05.2017 07:00:00 5,5 4,1 16 9 37 20 NW 0,0
20.05.2017 06:00:00 5,7 3,4 15 8 29 16 NW 0,0
20.05.2017 05:00:00 4,3 2,8 11 6 24 13 NNW 0,0
20.05.2017 04:00:00 4,3 2,3 9 5 22 12 NNW 0,0
20.05.2017 03:00:00 4,7 2,7 9 5 21 11 N 0,0
20.05.2017 02:00:00 3,8 1,8 4 2 9 5 N -
20.05.2017 01:00:00 3,8 2,3 4 2 11 6 ESE 0,0
20.05.2017 00:00:00 4,3 2,6 2 1 9 5 SSE 0,0
19.05.2017 23:00:00 5,1 2,9 5 3 16 9 N 0,0
19.05.2017 22:00:00 5,9 3,1 4 2 22 12 N 0,0
19.05.2017 21:00:00 7,4 4,4 13 7 24 13 NW 0,0
19.05.2017 20:00:00 10,7 2,5 8 4 28 15 NNW -
19.05.2017 19:00:00 11,5 4,2 13 7 28 15 NW 0,0
19.05.2017 18:00:00 13,0 2,8 13 7 34 18 NNW 0,0
19.05.2017 17:00:00 11,5 4,0 15 8 31 17 NNW 0,0
19.05.2017 16:00:00 11,6 5,2 15 8 28 15 NW 0,0
19.05.2017 15:00:00 12,3 5,5 11 6 24 13 NNW 0,0
19.05.2017 14:00:00 10,0 4,4 9 5 37 20 NNE -
19.05.2017 13:00:00 9,5 6,9 21 11 41 22 NW 0,0
19.05.2017 12:00:00 8,1 5,7 13 7 37 20 NNW 0,0
19.05.2017 11:00:00 5,2 4,9 21 11 39 21 NW 0,0
19.05.2017 10:00:00 5,2 4,8 18 10 34 18 NW 0,0
19.05.2017 09:00:00 6,2 5,5 13 7 29 16 NNW 2,0
19.05.2017 08:00:00 7,5 6,4 8 4 26 14 E -
19.05.2017 07:00:00 8,5 7,6 9 5 61 33 SSW 4,0
19.05.2017 06:00:00 8,8 7,7 9 5 50 27 SSE 5,0
19.05.2017 05:00:00 9,6 8,7 21 11 35 19 S 5,0
19.05.2017 04:00:00 10,0 8,9 8 4 42 23 SSW 1,0
19.05.2017 03:00:00 11,9 7,8 16 9 37 20 S 0,2
19.05.2017 02:00:00 13,6 6,7 22 12 42 23 S -
19.05.2017 01:00:00 14,3 6,9 26 14 54 29 S 0,0
19.05.2017 00:00:00 14,8 6,6 24 13 54 29 S 0,0
18.05.2017 23:00:00 15,5 5,7 26 14 65 35 S 0,0
18.05.2017 22:00:00 15,5 5,1 28 15 68 37 S 0,0
18.05.2017 21:00:00 15,9 6,6 34 18 65 35 SSE 0,0
18.05.2017 20:00:00 16,4 7,1 24 13 57 31 S -
18.05.2017 19:00:00 17,2 7,0 31 17 78 42 S 0,0
18.05.2017 18:00:00 17,8 6,9 34 18 67 36 S 0,0
18.05.2017 17:00:00 19,6 8,3 18 10 63 34 S 0,0
18.05.2017 16:00:00 19,5 8,8 16 9 65 35 SSE 0,0
18.05.2017 15:00:00 20,1 8,1 16 9 52 28 S 0,0
18.05.2017 14:00:00 19,5 9,4 18 10 48 26 S -
18.05.2017 13:00:00 19,6 9,2 18 10 55 30 SSE 0,0
18.05.2017 12:00:00 18,8 8,2 24 13 54 29 SSW 0,0
18.05.2017 11:00:00 19,0 8,0 15 8 31 17 S 0,0

tt = Température de l'air
td = dewpoint
ff = Vitesse du vent
fx = gusts
dd = Direction du vent
rr = Quantités de précipitations

stations d'obs. à proximité